sensor_id;sensor_type;location;lat;lon;timestamp;temperature;humidity
28654;DHT22;24320;56.980;24.336;2022-08-01T00:00:05;15.60;99.90
28654;DHT22;24320;56.980;24.336;2022-08-01T00:02:35;15.60;99.90
28654;DHT22;24320;56.980;24.336;2022-08-01T00:05:03;15.60;99.90
28654;DHT22;24320;56.980;24.336;2022-08-01T00:07:32;15.60;99.90
28654;DHT22;24320;56.980;24.336;2022-08-01T00:09:59;15.50;99.90
28654;DHT22;24320;56.980;24.336;2022-08-01T00:12:27;15.50;99.90
28654;DHT22;24320;56.980;24.336;2022-08-01T00:14:54;15.50;99.90
28654;DHT22;24320;56.980;24.336;2022-08-01T00:17:21;15.40;99.90
28654;DHT22;24320;56.980;24.336;2022-08-01T00:19:47;15.30;99.90
28654;DHT22;24320;56.980;24.336;2022-08-01T00:22:14;15.30;99.90
28654;DHT22;24320;56.980;24.336;2022-08-01T00:24:41;15.20;99.90
28654;DHT22;24320;56.980;24.336;2022-08-01T00:27:08;15.20;99.90
28654;DHT22;24320;56.980;24.336;2022-08-01T00:29:35;15.10;99.90
28654;DHT22;24320;56.980;24.336;2022-08-01T00:32:22;15.10;99.90
28654;DHT22;24320;56.980;24.336;2022-08-01T00:34:49;15.00;99.90
28654;DHT22;24320;56.980;24.336;2022-08-01T00:37:16;15.00;99.90
28654;DHT22;24320;56.980;24.336;2022-08-01T00:39:43;14.90;99.90
28654;DHT22;24320;56.980;24.336;2022-08-01T00:42:11;14.90;99.90
28654;DHT22;24320;56.980;24.336;2022-08-01T00:44:38;14.90;99.90
28654;DHT22;24320;56.980;24.336;2022-08-01T00:47:06;14.90;99.90
28654;DHT22;24320;56.980;24.336;2022-08-01T00:49:33;14.80;99.90
28654;DHT22;24320;56.980;24.336;2022-08-01T00:52:00;14.90;99.90
28654;DHT22;24320;56.980;24.336;2022-08-01T00:54:29;14.80;99.90
28654;DHT22;24320;56.980;24.336;2022-08-01T00:56:56;14.80;99.90
28654;DHT22;24320;56.980;24.336;2022-08-01T00:59:23;14.80;99.90
28654;DHT22;24320;56.980;24.336;2022-08-01T01:01:51;14.80;99.90
28654;DHT22;24320;56.980;24.336;2022-08-01T01:04:19;14.80;99.90
28654;DHT22;24320;56.980;24.336;2022-08-01T01:09:38;14.80;99.90
28654;DHT22;24320;56.980;24.336;2022-08-01T01:12:15;14.80;99.90
28654;DHT22;24320;56.980;24.336;2022-08-01T01:17:14;14.70;99.90
28654;DHT22;24320;56.980;24.336;2022-08-01T01:19:57;14.70;99.90
28654;DHT22;24320;56.980;24.336;2022-08-01T01:25:50;14.60;99.90
28654;DHT22;24320;56.980;24.336;2022-08-01T01:30:41;14.60;99.90
28654;DHT22;24320;56.980;24.336;2022-08-01T01:33:10;14.60;99.90
28654;DHT22;24320;56.980;24.336;2022-08-01T01:35:38;14.60;99.90
28654;DHT22;24320;56.980;24.336;2022-08-01T01:38:08;14.60;99.90
28654;DHT22;24320;56.980;24.336;2022-08-01T01:40:36;14.70;99.90
28654;DHT22;24320;56.980;24.336;2022-08-01T01:43:03;14.60;99.90
28654;DHT22;24320;56.980;24.336;2022-08-01T01:45:31;14.60;99.90
28654;DHT22;24320;56.980;24.336;2022-08-01T01:47:58;14.60;99.90
28654;DHT22;24320;56.980;24.336;2022-08-01T01:50:25;14.60;99.90
28654;DHT22;24320;56.980;24.336;2022-08-01T01:52:52;14.60;99.90
28654;DHT22;24320;56.980;24.336;2022-08-01T01:55:21;14.60;99.90
28654;DHT22;24320;56.980;24.336;2022-08-01T01:57:48;14.60;99.90
28654;DHT22;24320;56.980;24.336;2022-08-01T02:00:16;14.60;99.90
28654;DHT22;24320;56.980;24.336;2022-08-01T02:02:44;14.70;99.90
28654;DHT22;24320;56.980;24.336;2022-08-01T02:05:11;14.70;99.90
28654;DHT22;24320;56.980;24.336;2022-08-01T02:07:39;14.70;99.90
28654;DHT22;24320;56.980;24.336;2022-08-01T02:10:07;14.70;99.90
28654;DHT22;24320;56.980;24.336;2022-08-01T02:12:36;14.70;99.90
28654;DHT22;24320;56.980;24.336;2022-08-01T02:15:04;14.80;99.90
28654;DHT22;24320;56.980;24.336;2022-08-01T02:17:31;14.80;99.90
28654;DHT22;24320;56.980;24.336;2022-08-01T02:19:58;14.80;99.90
28654;DHT22;24320;56.980;24.336;2022-08-01T02:24:59;14.80;99.90
28654;DHT22;24320;56.980;24.336;2022-08-01T02:27:34;14.90;99.90
28654;DHT22;24320;56.980;24.336;2022-08-01T02:30:02;14.90;99.90
28654;DHT22;24320;56.980;24.336;2022-08-01T02:32:47;14.90;99.90
28654;DHT22;24320;56.980;24.336;2022-08-01T02:35:20;15.00;99.90
28654;DHT22;24320;56.980;24.336;2022-08-01T02:37:48;14.90;99.90
28654;DHT22;24320;56.980;24.336;2022-08-01T02:40:16;14.90;99.90
28654;DHT22;24320;56.980;24.336;2022-08-01T02:42:45;15.00;99.90
28654;DHT22;24320;56.980;24.336;2022-08-01T02:45:14;15.00;99.90
28654;DHT22;24320;56.980;24.336;2022-08-01T02:47:43;15.00;99.90
28654;DHT22;24320;56.980;24.336;2022-08-01T02:50:12;15.00;99.90
28654;DHT22;24320;56.980;24.336;2022-08-01T02:52:40;15.00;99.90
28654;DHT22;24320;56.980;24.336;2022-08-01T02:55:08;15.00;99.90
28654;DHT22;24320;56.980;24.336;2022-08-01T02:57:35;15.10;99.90
28654;DHT22;24320;56.980;24.336;2022-08-01T03:00:17;15.10;99.90
28654;DHT22;24320;56.980;24.336;2022-08-01T03:02:44;15.10;99.90
28654;DHT22;24320;56.980;24.336;2022-08-01T03:05:12;15.10;99.90
28654;DHT22;24320;56.980;24.336;2022-08-01T03:07:42;15.10;99.90
28654;DHT22;24320;56.980;24.336;2022-08-01T03:10:09;15.10;99.90
28654;DHT22;24320;56.980;24.336;2022-08-01T03:12:37;15.10;99.90
28654;DHT22;24320;56.980;24.336;2022-08-01T03:15:05;15.10;99.90
28654;DHT22;24320;56.980;24.336;2022-08-01T03:17:35;15.10;99.90
28654;DHT22;24320;56.980;24.336;2022-08-01T03:20:04;15.10;99.90
28654;DHT22;24320;56.980;24.336;2022-08-01T03:22:31;15.10;99.90
28654;DHT22;24320;56.980;24.336;2022-08-01T03:24:59;15.10;99.90
28654;DHT22;24320;56.980;24.336;2022-08-01T03:27:27;15.20;99.90
28654;DHT22;24320;56.980;24.336;2022-08-01T03:29:55;15.20;99.90
28654;DHT22;24320;56.980;24.336;2022-08-01T03:32:22;15.20;99.90
28654;DHT22;24320;56.980;24.336;2022-08-01T03:34:49;15.20;99.90
28654;DHT22;24320;56.980;24.336;2022-08-01T03:39:44;15.20;99.90
28654;DHT22;24320;56.980;24.336;2022-08-01T03:42:14;15.20;99.90
28654;DHT22;24320;56.980;24.336;2022-08-01T03:44:43;15.30;99.90
28654;DHT22;24320;56.980;24.336;2022-08-01T03:47:12;15.20;99.90
28654;DHT22;24320;56.980;24.336;2022-08-01T03:49:41;15.30;99.90
28654;DHT22;24320;56.980;24.336;2022-08-01T03:52:09;15.30;99.90
28654;DHT22;24320;56.980;24.336;2022-08-01T03:54:40;15.30;99.90
28654;DHT22;24320;56.980;24.336;2022-08-01T03:57:07;15.30;99.90
28654;DHT22;24320;56.980;24.336;2022-08-01T03:59:56;15.30;99.90
28654;DHT22;24320;56.980;24.336;2022-08-01T04:02:25;15.30;99.90
28654;DHT22;24320;56.980;24.336;2022-08-01T04:04:52;15.30;99.90
28654;DHT22;24320;56.980;24.336;2022-08-01T04:09:49;15.40;99.90
28654;DHT22;24320;56.980;24.336;2022-08-01T04:12:16;15.40;99.90
28654;DHT22;24320;56.980;24.336;2022-08-01T04:14:43;15.50;99.90
28654;DHT22;24320;56.980;24.336;2022-08-01T04:17:10;15.50;99.90
28654;DHT22;24320;56.980;24.336;2022-08-01T04:19:37;15.50;99.90
28654;DHT22;24320;56.980;24.336;2022-08-01T04:22:04;15.50;99.90
28654;DHT22;24320;56.980;24.336;2022-08-01T04:24:32;15.60;99.90
28654;DHT22;24320;56.980;24.336;2022-08-01T04:27:02;15.60;99.90
28654;DHT22;24320;56.980;24.336;2022-08-01T04:29:31;15.60;99.90
28654;DHT22;24320;56.980;24.336;2022-08-01T04:31:59;15.60;99.90
28654;DHT22;24320;56.980;24.336;2022-08-01T04:34:27;15.60;99.90
28654;DHT22;24320;56.980;24.336;2022-08-01T04:36:55;15.60;99.90
28654;DHT22;24320;56.980;24.336;2022-08-01T04:39:23;15.60;99.90
28654;DHT22;24320;56.980;24.336;2022-08-01T04:41:54;15.60;99.90
28654;DHT22;24320;56.980;24.336;2022-08-01T04:44:24;15.60;99.90
28654;DHT22;24320;56.980;24.336;2022-08-01T04:46:58;15.60;99.90
28654;DHT22;24320;56.980;24.336;2022-08-01T04:49:26;15.60;99.90
28654;DHT22;24320;56.980;24.336;2022-08-01T04:51:53;15.60;99.90
28654;DHT22;24320;56.980;24.336;2022-08-01T04:54:24;15.60;99.90
28654;DHT22;24320;56.980;24.336;2022-08-01T04:56:51;15.60;99.90
28654;DHT22;24320;56.980;24.336;2022-08-01T04:59:20;15.60;99.90
28654;DHT22;24320;56.980;24.336;2022-08-01T05:02:09;15.60;99.90
28654;DHT22;24320;56.980;24.336;2022-08-01T05:04:37;15.60;99.90
28654;DHT22;24320;56.980;24.336;2022-08-01T05:07:04;15.70;99.90
28654;DHT22;24320;56.980;24.336;2022-08-01T05:09:31;15.70;99.90
28654;DHT22;24320;56.980;24.336;2022-08-01T05:11:59;15.70;99.90
28654;DHT22;24320;56.980;24.336;2022-08-01T05:14:27;15.70;99.90
28654;DHT22;24320;56.980;24.336;2022-08-01T05:16:55;15.70;99.90
28654;DHT22;24320;56.980;24.336;2022-08-01T05:19:22;15.70;99.90
28654;DHT22;24320;56.980;24.336;2022-08-01T05:21:49;15.70;99.90
28654;DHT22;24320;56.980;24.336;2022-08-01T05:24:16;15.70;99.90
28654;DHT22;24320;56.980;24.336;2022-08-01T05:26:43;15.70;99.90
28654;DHT22;24320;56.980;24.336;2022-08-01T05:29:10;15.80;99.90
28654;DHT22;24320;56.980;24.336;2022-08-01T05:31:37;15.80;99.90
28654;DHT22;24320;56.980;24.336;2022-08-01T05:34:04;15.90;99.90
28654;DHT22;24320;56.980;24.336;2022-08-01T05:36:32;15.80;99.90
28654;DHT22;24320;56.980;24.336;2022-08-01T05:38:59;15.90;99.90
28654;DHT22;24320;56.980;24.336;2022-08-01T05:41:26;15.90;99.90
28654;DHT22;24320;56.980;24.336;2022-08-01T05:43:53;15.90;99.90
28654;DHT22;24320;56.980;24.336;2022-08-01T05:46:20;15.90;99.90
28654;DHT22;24320;56.980;24.336;2022-08-01T05:48:51;16.00;99.90
28654;DHT22;24320;56.980;24.336;2022-08-01T05:51:19;16.00;99.90
28654;DHT22;24320;56.980;24.336;2022-08-01T05:53:46;16.00;99.90
28654;DHT22;24320;56.980;24.336;2022-08-01T05:56:14;16.00;99.90
28654;DHT22;24320;56.980;24.336;2022-08-01T05:58:41;16.00;99.90
28654;DHT22;24320;56.980;24.336;2022-08-01T06:01:07;16.00;99.90
28654;DHT22;24320;56.980;24.336;2022-08-01T06:03:34;16.00;99.90
28654;DHT22;24320;56.980;24.336;2022-08-01T06:06:02;16.00;99.90
28654;DHT22;24320;56.980;24.336;2022-08-01T06:08:29;16.00;99.90
28654;DHT22;24320;56.980;24.336;2022-08-01T06:10:56;16.00;99.90
28654;DHT22;24320;56.980;24.336;2022-08-01T06:13:23;16.00;99.90
28654;DHT22;24320;56.980;24.336;2022-08-01T06:15:53;16.00;99.90
28654;DHT22;24320;56.980;24.336;2022-08-01T06:18:26;16.00;99.90
28654;DHT22;24320;56.980;24.336;2022-08-01T06:20:56;16.00;99.90
28654;DHT22;24320;56.980;24.336;2022-08-01T06:23:23;16.00;99.90
28654;DHT22;24320;56.980;24.336;2022-08-01T06:25:58;16.00;99.90
28654;DHT22;24320;56.980;24.336;2022-08-01T06:28:25;16.00;99.90
28654;DHT22;24320;56.980;24.336;2022-08-01T06:30:52;16.10;99.90
28654;DHT22;24320;56.980;24.336;2022-08-01T06:33:19;16.10;99.90
28654;DHT22;24320;56.980;24.336;2022-08-01T06:35:47;16.10;99.90
28654;DHT22;24320;56.980;24.336;2022-08-01T06:38:14;16.10;99.90
28654;DHT22;24320;56.980;24.336;2022-08-01T06:40:41;16.10;99.90
28654;DHT22;24320;56.980;24.336;2022-08-01T06:43:07;16.10;99.90
28654;DHT22;24320;56.980;24.336;2022-08-01T06:45:34;16.10;99.90
28654;DHT22;24320;56.980;24.336;2022-08-01T06:48:03;16.10;99.90
28654;DHT22;24320;56.980;24.336;2022-08-01T06:50:30;16.10;99.90
28654;DHT22;24320;56.980;24.336;2022-08-01T06:52:57;16.10;99.90
28654;DHT22;24320;56.980;24.336;2022-08-01T06:55:24;16.10;99.90
28654;DHT22;24320;56.980;24.336;2022-08-01T06:57:51;16.10;99.90
28654;DHT22;24320;56.980;24.336;2022-08-01T07:00:20;16.10;99.90
28654;DHT22;24320;56.980;24.336;2022-08-01T07:02:50;16.10;99.90
28654;DHT22;24320;56.980;24.336;2022-08-01T07:05:18;16.20;99.90
28654;DHT22;24320;56.980;24.336;2022-08-01T07:07:45;16.10;99.90
28654;DHT22;24320;56.980;24.336;2022-08-01T07:10:12;16.20;99.90
28654;DHT22;24320;56.980;24.336;2022-08-01T07:12:42;16.20;99.90
28654;DHT22;24320;56.980;24.336;2022-08-01T07:15:09;16.40;99.90
28654;DHT22;24320;56.980;24.336;2022-08-01T07:17:40;16.20;99.90
28654;DHT22;24320;56.980;24.336;2022-08-01T07:20:11;16.20;99.90
28654;DHT22;24320;56.980;24.336;2022-08-01T07:22:42;16.20;99.90
28654;DHT22;24320;56.980;24.336;2022-08-01T07:25:12;16.30;99.90
28654;DHT22;24320;56.980;24.336;2022-08-01T07:27:39;16.20;99.90
28654;DHT22;24320;56.980;24.336;2022-08-01T07:30:06;16.30;99.90
28654;DHT22;24320;56.980;24.336;2022-08-01T07:32:33;16.30;99.90
28654;DHT22;24320;56.980;24.336;2022-08-01T07:35:02;16.30;99.90
28654;DHT22;24320;56.980;24.336;2022-08-01T07:37:29;16.30;99.90
28654;DHT22;24320;56.980;24.336;2022-08-01T07:40:15;16.30;99.90
28654;DHT22;24320;56.980;24.336;2022-08-01T07:42:41;16.40;99.90
28654;DHT22;24320;56.980;24.336;2022-08-01T07:45:10;16.40;99.90
28654;DHT22;24320;56.980;24.336;2022-08-01T07:47:37;16.40;99.90
28654;DHT22;24320;56.980;24.336;2022-08-01T07:50:04;16.40;99.90
28654;DHT22;24320;56.980;24.336;2022-08-01T07:52:32;16.40;99.90
28654;DHT22;24320;56.980;24.336;2022-08-01T07:54:59;16.40;99.90
28654;DHT22;24320;56.980;24.336;2022-08-01T07:57:26;16.40;99.90
28654;DHT22;24320;56.980;24.336;2022-08-01T07:59:52;16.50;99.90
28654;DHT22;24320;56.980;24.336;2022-08-01T08:02:19;16.40;99.90
28654;DHT22;24320;56.980;24.336;2022-08-01T08:04:46;16.40;99.90
28654;DHT22;24320;56.980;24.336;2022-08-01T08:07:15;16.40;99.90
28654;DHT22;24320;56.980;24.336;2022-08-01T08:09:41;16.40;99.90
28654;DHT22;24320;56.980;24.336;2022-08-01T08:12:08;16.40;99.90
28654;DHT22;24320;56.980;24.336;2022-08-01T08:14:36;16.40;99.90
28654;DHT22;24320;56.980;24.336;2022-08-01T08:17:03;16.40;99.90
28654;DHT22;24320;56.980;24.336;2022-08-01T08:19:30;16.40;99.90
28654;DHT22;24320;56.980;24.336;2022-08-01T08:22:05;16.40;99.90
28654;DHT22;24320;56.980;24.336;2022-08-01T08:24:32;16.40;99.90
28654;DHT22;24320;56.980;24.336;2022-08-01T08:27:00;16.40;99.90
28654;DHT22;24320;56.980;24.336;2022-08-01T08:29:28;16.50;99.90
28654;DHT22;24320;56.980;24.336;2022-08-01T08:31:56;16.50;99.90
28654;DHT22;24320;56.980;24.336;2022-08-01T08:34:24;16.50;99.90
28654;DHT22;24320;56.980;24.336;2022-08-01T08:36:52;16.50;99.90
28654;DHT22;24320;56.980;24.336;2022-08-01T08:39:19;16.50;99.90
28654;DHT22;24320;56.980;24.336;2022-08-01T08:41:46;16.50;99.90
28654;DHT22;24320;56.980;24.336;2022-08-01T08:44:15;16.50;99.90
28654;DHT22;24320;56.980;24.336;2022-08-01T08:46:43;16.60;99.90
28654;DHT22;24320;56.980;24.336;2022-08-01T08:49:11;16.60;99.90
28654;DHT22;24320;56.980;24.336;2022-08-01T08:51:39;16.60;99.90
28654;DHT22;24320;56.980;24.336;2022-08-01T08:54:06;16.60;99.90
28654;DHT22;24320;56.980;24.336;2022-08-01T08:56:34;16.50;99.90
28654;DHT22;24320;56.980;24.336;2022-08-01T08:59:01;16.50;99.90
28654;DHT22;24320;56.980;24.336;2022-08-01T09:01:29;16.60;99.90
28654;DHT22;24320;56.980;24.336;2022-08-01T09:03:59;16.60;99.90
28654;DHT22;24320;56.980;24.336;2022-08-01T09:06:26;16.60;99.90
28654;DHT22;24320;56.980;24.336;2022-08-01T09:08:53;16.70;99.90
28654;DHT22;24320;56.980;24.336;2022-08-01T09:11:20;16.70;99.90
28654;DHT22;24320;56.980;24.336;2022-08-01T09:16:31;16.70;99.90
28654;DHT22;24320;56.980;24.336;2022-08-01T09:19:34;16.70;99.90
28654;DHT22;24320;56.980;24.336;2022-08-01T09:22:08;16.70;99.90
28654;DHT22;24320;56.980;24.336;2022-08-01T09:24:36;16.70;99.90
28654;DHT22;24320;56.980;24.336;2022-08-01T11:31:34;17.70;99.90
28654;DHT22;24320;56.980;24.336;2022-08-01T11:34:02;17.70;99.90
28654;DHT22;24320;56.980;24.336;2022-08-01T11:36:29;17.70;99.90
28654;DHT22;24320;56.980;24.336;2022-08-01T11:39:17;17.70;99.90
28654;DHT22;24320;56.980;24.336;2022-08-01T11:41:45;17.70;99.90
28654;DHT22;24320;56.980;24.336;2022-08-01T11:44:14;17.80;99.90
28654;DHT22;24320;56.980;24.336;2022-08-01T11:54:57;17.90;99.90
28654;DHT22;24320;56.980;24.336;2022-08-01T11:57:30;17.90;99.90
28654;DHT22;24320;56.980;24.336;2022-08-01T12:00:01;17.80;99.90
28654;DHT22;24320;56.980;24.336;2022-08-01T12:02:34;17.90;99.90
28654;DHT22;24320;56.980;24.336;2022-08-01T12:07:34;17.90;99.90
28654;DHT22;24320;56.980;24.336;2022-08-01T12:10:06;17.90;99.90
28654;DHT22;24320;56.980;24.336;2022-08-01T12:12:33;17.90;99.90
28654;DHT22;24320;56.980;24.336;2022-08-01T12:15:02;17.90;99.90
28654;DHT22;24320;56.980;24.336;2022-08-01T12:17:35;17.90;99.90
28654;DHT22;24320;56.980;24.336;2022-08-01T12:20:03;18.00;99.90
28654;DHT22;24320;56.980;24.336;2022-08-01T12:22:31;18.00;99.90
28654;DHT22;24320;56.980;24.336;2022-08-01T12:25:08;18.00;99.90
28654;DHT22;24320;56.980;24.336;2022-08-01T12:27:35;18.10;99.90
28654;DHT22;24320;56.980;24.336;2022-08-01T12:30:12;18.10;99.90
28654;DHT22;24320;56.980;24.336;2022-08-01T12:32:40;18.20;99.90
28654;DHT22;24320;56.980;24.336;2022-08-01T12:35:11;18.30;99.90
28654;DHT22;24320;56.980;24.336;2022-08-01T12:37:47;18.40;99.90
28654;DHT22;24320;56.980;24.336;2022-08-01T12:42:42;18.40;99.90
28654;DHT22;24320;56.980;24.336;2022-08-01T12:45:09;18.40;99.90
28654;DHT22;24320;56.980;24.336;2022-08-01T12:47:37;18.40;99.90
28654;DHT22;24320;56.980;24.336;2022-08-01T12:50:05;18.40;99.90
28654;DHT22;24320;56.980;24.336;2022-08-01T12:52:33;18.30;99.90
28654;DHT22;24320;56.980;24.336;2022-08-01T12:57:36;18.30;99.90
28654;DHT22;24320;56.980;24.336;2022-08-01T13:00:18;18.30;99.90
28654;DHT22;24320;56.980;24.336;2022-08-01T13:02:46;18.20;99.90
28654;DHT22;24320;56.980;24.336;2022-08-01T13:05:13;18.20;99.90
28654;DHT22;24320;56.980;24.336;2022-08-01T13:07:50;18.30;99.90
28654;DHT22;24320;56.980;24.336;2022-08-01T13:10:25;18.50;99.90
28654;DHT22;24320;56.980;24.336;2022-08-01T13:12:53;18.60;99.90
28654;DHT22;24320;56.980;24.336;2022-08-01T13:15:24;18.60;99.90
28654;DHT22;24320;56.980;24.336;2022-08-01T13:17:52;18.60;99.90
28654;DHT22;24320;56.980;24.336;2022-08-01T13:20:26;18.50;99.90
28654;DHT22;24320;56.980;24.336;2022-08-01T13:22:54;18.40;99.90
28654;DHT22;24320;56.980;24.336;2022-08-01T13:25:21;18.40;99.90
28654;DHT22;24320;56.980;24.336;2022-08-01T13:28:13;18.50;99.90
28654;DHT22;24320;56.980;24.336;2022-08-01T13:30:38;18.60;99.90
28654;DHT22;24320;56.980;24.336;2022-08-01T13:33:07;18.70;99.90
28654;DHT22;24320;56.980;24.336;2022-08-01T13:35:34;18.80;99.90
28654;DHT22;24320;56.980;24.336;2022-08-01T13:38:01;18.80;99.90
28654;DHT22;24320;56.980;24.336;2022-08-01T13:40:28;18.80;99.90
28654;DHT22;24320;56.980;24.336;2022-08-01T13:42:55;18.80;99.90
28654;DHT22;24320;56.980;24.336;2022-08-01T13:45:23;18.70;99.90
28654;DHT22;24320;56.980;24.336;2022-08-01T13:47:52;18.60;99.90
28654;DHT22;24320;56.980;24.336;2022-08-01T13:50:38;18.50;99.90
28654;DHT22;24320;56.980;24.336;2022-08-01T13:53:05;18.60;99.90
28654;DHT22;24320;56.980;24.336;2022-08-01T13:55:32;18.70;99.90
28654;DHT22;24320;56.980;24.336;2022-08-01T13:58:01;18.70;99.90
28654;DHT22;24320;56.980;24.336;2022-08-01T14:00:29;18.70;99.90
28654;DHT22;24320;56.980;24.336;2022-08-01T14:02:56;18.70;99.90
28654;DHT22;24320;56.980;24.336;2022-08-01T14:05:23;18.70;99.90
28654;DHT22;24320;56.980;24.336;2022-08-01T14:07:50;18.70;99.90
28654;DHT22;24320;56.980;24.336;2022-08-01T14:10:22;18.70;99.90
28654;DHT22;24320;56.980;24.336;2022-08-01T14:12:49;18.70;99.90
28654;DHT22;24320;56.980;24.336;2022-08-01T14:15:17;18.70;99.90
28654;DHT22;24320;56.980;24.336;2022-08-01T14:18:04;18.60;99.90
28654;DHT22;24320;56.980;24.336;2022-08-01T14:20:32;18.60;99.90
28654;DHT22;24320;56.980;24.336;2022-08-01T14:22:59;18.60;99.90
28654;DHT22;24320;56.980;24.336;2022-08-01T14:25:26;18.60;99.90
28654;DHT22;24320;56.980;24.336;2022-08-01T14:28:14;18.50;99.90
28654;DHT22;24320;56.980;24.336;2022-08-01T14:30:41;18.30;99.90
28654;DHT22;24320;56.980;24.336;2022-08-01T14:33:09;18.20;99.90
28654;DHT22;24320;56.980;24.336;2022-08-01T14:35:36;18.10;99.90
28654;DHT22;24320;56.980;24.336;2022-08-01T14:38:23;18.00;99.90
28654;DHT22;24320;56.980;24.336;2022-08-01T14:40:58;17.90;99.90
28654;DHT22;24320;56.980;24.336;2022-08-01T14:43:26;17.80;99.90
28654;DHT22;24320;56.980;24.336;2022-08-01T14:45:59;17.80;99.90
28654;DHT22;24320;56.980;24.336;2022-08-01T14:48:26;17.80;99.90
28654;DHT22;24320;56.980;24.336;2022-08-01T14:50:55;17.90;99.90
28654;DHT22;24320;56.980;24.336;2022-08-01T14:53:22;17.90;99.90
28654;DHT22;24320;56.980;24.336;2022-08-01T14:55:49;18.00;99.90
28654;DHT22;24320;56.980;24.336;2022-08-01T14:58:16;18.00;99.90
28654;DHT22;24320;56.980;24.336;2022-08-01T15:00:43;18.10;99.90
28654;DHT22;24320;56.980;24.336;2022-08-01T15:03:10;18.00;99.90
28654;DHT22;24320;56.980;24.336;2022-08-01T15:05:37;18.10;99.90
28654;DHT22;24320;56.980;24.336;2022-08-01T15:08:05;18.10;99.90
28654;DHT22;24320;56.980;24.336;2022-08-01T15:10:32;18.10;99.90
28654;DHT22;24320;56.980;24.336;2022-08-01T15:12:59;18.10;99.90
28654;DHT22;24320;56.980;24.336;2022-08-01T15:15:28;18.10;99.90
28654;DHT22;24320;56.980;24.336;2022-08-01T15:17:55;18.00;99.90
28654;DHT22;24320;56.980;24.336;2022-08-01T15:20:22;17.90;99.90
28654;DHT22;24320;56.980;24.336;2022-08-01T15:22:49;17.80;99.90
28654;DHT22;24320;56.980;24.336;2022-08-01T15:25:16;17.80;99.90
28654;DHT22;24320;56.980;24.336;2022-08-01T15:27:43;17.70;99.90
28654;DHT22;24320;56.980;24.336;2022-08-01T15:30:10;17.70;99.90
28654;DHT22;24320;56.980;24.336;2022-08-01T15:32:37;17.60;99.90
28654;DHT22;24320;56.980;24.336;2022-08-01T15:35:05;17.50;99.90
28654;DHT22;24320;56.980;24.336;2022-08-01T15:37:32;17.40;99.90
28654;DHT22;24320;56.980;24.336;2022-08-01T15:40:02;17.40;99.90
28654;DHT22;24320;56.980;24.336;2022-08-01T15:42:29;17.40;99.90
28654;DHT22;24320;56.980;24.336;2022-08-01T15:44:56;17.40;99.90
28654;DHT22;24320;56.980;24.336;2022-08-01T15:47:23;17.30;99.90
28654;DHT22;24320;56.980;24.336;2022-08-01T15:49:50;17.40;99.90
28654;DHT22;24320;56.980;24.336;2022-08-01T15:52:18;17.40;99.90
28654;DHT22;24320;56.980;24.336;2022-08-01T15:54:50;17.40;99.90
28654;DHT22;24320;56.980;24.336;2022-08-01T15:57:17;17.40;99.90
28654;DHT22;24320;56.980;24.336;2022-08-01T15:59:44;17.40;99.90
28654;DHT22;24320;56.980;24.336;2022-08-01T16:02:10;17.40;99.90
28654;DHT22;24320;56.980;24.336;2022-08-01T16:04:37;17.40;99.90
28654;DHT22;24320;56.980;24.336;2022-08-01T16:07:04;17.40;99.90
28654;DHT22;24320;56.980;24.336;2022-08-01T16:09:31;17.30;99.90
28654;DHT22;24320;56.980;24.336;2022-08-01T16:11:58;17.40;99.90
28654;DHT22;24320;56.980;24.336;2022-08-01T16:14:25;17.40;99.90
28654;DHT22;24320;56.980;24.336;2022-08-01T16:16:52;17.30;99.90
28654;DHT22;24320;56.980;24.336;2022-08-01T16:19:22;17.30;99.90
28654;DHT22;24320;56.980;24.336;2022-08-01T16:21:49;17.30;99.90
28654;DHT22;24320;56.980;24.336;2022-08-01T16:24:17;17.30;99.90
28654;DHT22;24320;56.980;24.336;2022-08-01T16:26:44;17.30;99.90
28654;DHT22;24320;56.980;24.336;2022-08-01T16:29:11;17.30;99.90
28654;DHT22;24320;56.980;24.336;2022-08-01T16:31:38;17.30;99.90
28654;DHT22;24320;56.980;24.336;2022-08-01T16:34:25;17.30;99.90
28654;DHT22;24320;56.980;24.336;2022-08-01T16:36:52;17.20;99.90
28654;DHT22;24320;56.980;24.336;2022-08-01T16:39:21;17.20;99.90
28654;DHT22;24320;56.980;24.336;2022-08-01T16:41:49;17.20;99.90
28654;DHT22;24320;56.980;24.336;2022-08-01T16:44:24;17.10;99.90
28654;DHT22;24320;56.980;24.336;2022-08-01T16:46:59;17.20;99.90
28654;DHT22;24320;56.980;24.336;2022-08-01T16:49:26;17.20;99.90
28654;DHT22;24320;56.980;24.336;2022-08-01T16:51:53;17.20;99.90
28654;DHT22;24320;56.980;24.336;2022-08-01T16:54:20;17.20;99.90
28654;DHT22;24320;56.980;24.336;2022-08-01T16:56:51;17.10;99.90
28654;DHT22;24320;56.980;24.336;2022-08-01T16:59:18;17.20;99.90
28654;DHT22;24320;56.980;24.336;2022-08-01T17:01:45;17.20;99.90
28654;DHT22;24320;56.980;24.336;2022-08-01T17:04:27;17.10;99.90
28654;DHT22;24320;56.980;24.336;2022-08-01T17:06:54;17.10;99.90
28654;DHT22;24320;56.980;24.336;2022-08-01T17:09:21;17.10;99.90
28654;DHT22;24320;56.980;24.336;2022-08-01T17:11:48;17.10;99.90
28654;DHT22;24320;56.980;24.336;2022-08-01T17:14:15;17.10;99.90
28654;DHT22;24320;56.980;24.336;2022-08-01T17:16:43;17.10;99.90
28654;DHT22;24320;56.980;24.336;2022-08-01T17:19:11;17.10;99.90
28654;DHT22;24320;56.980;24.336;2022-08-01T17:21:40;17.10;99.90
28654;DHT22;24320;56.980;24.336;2022-08-01T17:24:07;17.10;99.90
28654;DHT22;24320;56.980;24.336;2022-08-01T17:26:34;17.00;99.90
28654;DHT22;24320;56.980;24.336;2022-08-01T17:29:02;17.10;99.90
28654;DHT22;24320;56.980;24.336;2022-08-01T17:31:29;17.10;99.90
28654;DHT22;24320;56.980;24.336;2022-08-01T17:33:56;17.10;99.90
28654;DHT22;24320;56.980;24.336;2022-08-01T17:36:23;17.10;99.90
28654;DHT22;24320;56.980;24.336;2022-08-01T17:38:50;17.10;99.90
28654;DHT22;24320;56.980;24.336;2022-08-01T17:41:17;17.00;99.90
28654;DHT22;24320;56.980;24.336;2022-08-01T17:43:43;17.10;99.90
28654;DHT22;24320;56.980;24.336;2022-08-01T17:46:10;17.10;99.90
28654;DHT22;24320;56.980;24.336;2022-08-01T17:48:37;17.10;99.90
28654;DHT22;24320;56.980;24.336;2022-08-01T17:51:04;17.00;99.90
28654;DHT22;24320;56.980;24.336;2022-08-01T17:53:32;17.10;99.90
28654;DHT22;24320;56.980;24.336;2022-08-01T17:55:59;17.10;99.90
28654;DHT22;24320;56.980;24.336;2022-08-01T17:58:28;17.10;99.90
28654;DHT22;24320;56.980;24.336;2022-08-01T18:01:16;17.10;99.90
28654;DHT22;24320;56.980;24.336;2022-08-01T18:03:43;17.10;99.90
28654;DHT22;24320;56.980;24.336;2022-08-01T18:06:11;17.10;99.90